Blue Ridge Highway — 3FEY4 — position and weather

sailwx.info

Track history (hours):
 
Tides and Currents Weather Stations Pressure Air Temp Water Temp Dewpoint Dewpoint Depression Visibility Wind Speed Wind Dir Waves Ship Positions

Blue Ridge Highway

Last reported at 2015-Jan-24 08:16 UTC. Time now 2015-Jan-28 01:27 UTC.
Position N 34°49' E 139°52'.

Length 180 m; draft 9.3 m.

Type: Cargo ship. MMSI: 355558000.

Date/timePositionNaut miles runAvg speedWind from/ knotsBaromVisibWave heightAir tempDewpointWater temp
2015-Jan-24 08:16N 34°49' E 139°52'1114.9
2015-Jan-24 07:33N 34°56' E 139°42'1414.5
2015-Jan-24 06:33N 35°10' E 139°45'1211.7
2015-Jan-24 05:33N 35°22' E 139°42'6 5.5
2015-Jan-24 04:32N 35°27' E 139°41'0 0.0
2015-Jan-24 03:32N 35°27' E 139°41'0 0.0
2015-Jan-24 02:32N 35°27' E 139°41'0 0.0
2015-Jan-24 01:32N 35°27' E 139°41'0 0.0
2015-Jan-24 00:32N 35°27' E 139°41'0 0.0
2015-Jan-23 23:32N 35°27' E 139°41'0 0.0
2015-Jan-23 22:32N 35°27' E 139°41'3 2.6
2015-Jan-23 21:34N 35°25' E 139°43'1010.3
2015-Jan-23 20:33N 35°15' E 139°47'1110.6
2015-Jan-23 19:33N 35°05' E 139°45'1715.5
2015-Jan-23 18:29N 34°50' E 139°36'2115.8
2015-Jan-23 17:11N 34°35' E 139°19'  
Track history (hours):
 
Tides and Currents Weather Stations Pressure Air Temp Water Temp Dewpoint Dewpoint Depression Visibility Wind Speed Wind Dir Waves Ship Positions

Blue Ridge Highway

Last reported at 2015-Jan-24 08:16 UTC. Time now 2015-Jan-28 01:27 UTC.
Position N 34°49' E 139°52'.

Length 180 m; draft 9.3 m.

Type: Cargo ship. MMSI: 355558000.

Date/timePositionNaut miles runAvg speedWind from/ knotsBaromVisibWave heightAir tempDewpointWater temp
2015-Jan-24 08:16N 34°49' E 139°52'1114.9
2015-Jan-24 07:33N 34°56' E 139°42'1414.5
2015-Jan-24 06:33N 35°10' E 139°45'1211.7
2015-Jan-24 05:33N 35°22' E 139°42'6 5.5
2015-Jan-24 04:32N 35°27' E 139°41'0 0.0
2015-Jan-24 03:32N 35°27' E 139°41'0 0.0
2015-Jan-24 02:32N 35°27' E 139°41'0 0.0
2015-Jan-24 01:32N 35°27' E 139°41'0 0.0
2015-Jan-24 00:32N 35°27' E 139°41'0 0.0
2015-Jan-23 23:32N 35°27' E 139°41'0 0.0
2015-Jan-23 22:32N 35°27' E 139°41'3 2.6
2015-Jan-23 21:34N 35°25' E 139°43'1010.3
2015-Jan-23 20:33N 35°15' E 139°47'1110.6
2015-Jan-23 19:33N 35°05' E 139°45'1715.5
2015-Jan-23 18:29N 34°50' E 139°36'2115.8
2015-Jan-23 17:11N 34°35' E 139°19'  

Dump ship's entire track history